Time;durP1;ratioP1;P1;durP2;ratioP2;P2;SDS_P1;SDS_P2;PMS_P1;PMS_P2;Temp;Humidity;BMP_temperature;BMP_pressure;BME280_temperature;BME280_humidity;BME280_pressure;Samples;Min_cycle;Max_cycle;Signal;HPM_P1;HPM_P2
2022/02/02 00:01:14;;;;;;;;;7.25;4.25;;;;;11.88;100.00;102017.97;5077215;28;45480;-83
2022/02/02 00:03:45;;;;;;;;;8.00;5.25;;;;;11.89;100.00;102017.19;5076501;28;45321;-82
2022/02/02 00:06:19;;;;;;;;;6.25;6.25;;;;;11.93;100.00;102021.75;5077192;28;45346;-82
2022/02/02 00:08:56;;;;;;;;;8.50;4.00;;;;;11.93;100.00;102016.56;5076965;28;45441;-83
2022/02/02 00:12:05;;;;;;;;;7.50;5.50;;;;;11.93;100.00;102015.69;5076758;27;45403;-84
2022/02/02 00:14:36;;;;;;;;;5.50;5.50;;;;;11.94;100.00;102022.63;5075743;27;45331;-83
2022/02/02 00:17:15;;;;;;;;;8.00;6.00;;;;;11.95;100.00;102028.75;5037918;28;45475;-85
2022/02/02 00:22:17;;;;;;;;;7.25;6.25;;;;;12.00;100.00;102028.25;5060945;28;45439;-82
2022/02/02 00:27:18;;;;;;;;;6.75;6.75;;;;;12.02;100.00;102018.84;5076806;28;45263;-83
2022/02/02 00:29:49;;;;;;;;;6.50;5.50;;;;;12.04;100.00;102019.81;5076455;28;45446;-84
2022/02/02 00:32:44;;;;;;;;;6.00;5.00;;;;;12.06;100.00;102022.50;5076030;27;45537;-83
2022/02/02 00:35:12;;;;;;;;;7.25;6.00;;;;;12.02;100.00;102013.66;5089492;27;45233;-83
2022/02/02 00:37:38;;;;;;;;;7.00;7.00;;;;;12.04;100.00;102017.22;5080684;27;45375;-83
2022/02/02 00:40:06;;;;;;;;;6.50;6.25;;;;;12.04;100.00;102013.72;5077150;28;45379;-83
2022/02/02 00:42:32;;;;;;;;;8.50;7.50;;;;;12.06;100.00;102022.50;5077544;28;45406;-83
2022/02/02 00:44:58;;;;;;;;;6.75;6.50;;;;;12.02;100.00;102029.22;5079364;27;45794;-84
2022/02/02 00:47:25;;;;;;;;;10.00;7.75;;;;;12.01;100.00;102026.53;5083921;27;45493;-83
2022/02/02 00:49:53;;;;;;;;;7.00;6.00;;;;;12.03;100.00;102033.63;5065102;28;45394;-83
2022/02/02 00:52:19;;;;;;;;;6.25;4.50;;;;;12.05;100.00;102037.16;5063107;28;46928;-83
2022/02/02 00:54:47;;;;;;;;;7.25;6.00;;;;;12.06;100.00;102031.19;5061937;28;45537;-82
2022/02/02 00:57:14;;;;;;;;;6.50;6.00;;;;;12.04;100.00;102035.38;5079878;28;45501;-82
2022/02/02 00:59:43;;;;;;;;;8.50;6.75;;;;;12.05;100.00;102046.66;5080349;27;45543;-82
2022/02/02 01:02:10;;;;;;;;;7.00;5.25;;;;;12.05;100.00;102047.56;5079350;27;46157;-84
2022/02/02 01:04:36;;;;;;;;;7.00;5.25;;;;;12.05;100.00;102046.66;5079363;28;45419;-83
2022/02/02 01:07:20;;;;;;;;;8.75;7.00;;;;;12.06;100.00;102054.53;5079878;28;45750;-82
2022/02/02 01:09:53;;;;;;;;;5.25;5.25;;;;;12.05;100.00;102052.75;5078992;28;45360;-83
2022/02/02 01:16:11;;;;;;;;;6.50;6.50;;;;;12.12;100.00;102037.53;5082055;28;45289;-82
2022/02/02 01:18:34;;;;;;;;;6.25;6.00;;;;;12.12;100.00;102033.22;5083424;28;45478;-80
2022/02/02 01:21:06;;;;;;;;;8.00;7.00;;;;;12.18;100.00;102037.88;5082643;28;45850;-82
2022/02/02 01:29:03;;;;;;;;;8.25;7.25;;;;;12.19;100.00;102042.28;5079650;28;45322;-80
2022/02/02 01:31:29;;;;;;;;;7.75;7.00;;;;;12.19;100.00;102040.59;5080064;28;45290;-83
2022/02/02 01:33:55;;;;;;;;;14.25;11.00;;;;;12.16;100.00;102050.78;5078993;27;45386;-82
2022/02/02 01:36:21;;;;;;;;;10.25;8.75;;;;;12.16;100.00;102047.28;5078109;27;45347;-84
2022/02/02 01:38:49;;;;;;;;;8.75;7.75;;;;;12.13;100.00;102034.16;5078655;28;45339;-81
2022/02/02 01:41:24;;;;;;;;;6.75;6.25;;;;;12.10;100.00;102036.56;5079133;28;45468;-82
2022/02/02 01:43:58;;;;;;;;;9.75;7.75;;;;;12.10;100.00;102041.75;5081046;27;46108;-82
2022/02/02 01:46:28;;;;;;;;;9.25;8.50;;;;;12.11;100.00;102048.72;5081828;28;45911;-82
2022/02/02 01:49:03;;;;;;;;;7.50;7.50;;;;;12.11;100.00;102051.31;5080590;28;45161;-84
2022/02/02 01:51:48;;;;;;;;;6.25;6.25;;;;;12.08;100.00;102045.16;5079136;27;45546;-83
2022/02/02 01:54:33;;;;;;;;;7.25;7.25;;;;;12.10;100.00;102041.75;5078525;28;46293;-81
2022/02/02 01:57:03;;;;;;;;;10.00;8.75;;;;;12.11;100.00;102049.63;5039276;28;45287;-83
2022/02/02 01:59:39;;;;;;;;;7.25;5.75;;;;;12.08;100.00;102047.75;5058057;28;45402;-82
2022/02/02 02:02:09;;;;;;;;;6.00;5.25;;;;;12.11;100.00;102056.53;5058238;28;45430;-80
2022/02/02 02:04:36;;;;;;;;;8.25;7.50;;;;;12.09;100.00;102048.66;5058376;28;45664;-82
2022/02/02 02:07:03;;;;;;;;;8.00;8.00;;;;;12.09;100.00;102053.84;5058181;28;45769;-77
2022/02/02 02:09:30;;;;;;;;;9.00;8.50;;;;;12.10;100.00;102052.13;5040883;28;45458;-78
2022/02/02 02:12:08;;;;;;;;;11.00;10.00;;;;;12.08;100.00;102052.06;5057856;28;45469;-81
2022/02/02 02:17:03;;;;;;;;;8.75;8.75;;;;;12.10;100.00;102049.53;5058989;28;45241;-80
2022/02/02 02:19:29;;;;;;;;;5.00;5.00;;;;;12.10;100.00;102041.75;5057855;28;45392;-76
2022/02/02 02:21:55;;;;;;;;;12.25;9.75;;;;;12.07;100.00;102045.94;5056777;28;45495;-82
2022/02/02 02:24:21;;;;;;;;;9.50;8.25;;;;;12.09;100.00;102046.06;5061230;28;45532;-77
2022/02/02 02:26:47;;;;;;;;;9.25;9.25;;;;;12.06;100.00;102049.34;5077958;28;45853;-76
2022/02/02 02:29:39;;;;;;;;;9.50;8.25;;;;;12.08;100.00;102059.84;5078200;28;45367;-80
2022/02/02 02:56:22;;;;;;;;;9.50;8.25;;;;;11.95;100.00;102032.22;5077118;28;45818;-80
2022/02/02 02:59:13;;;;;;;;;14.25;11.00;;;;;11.97;100.00;102042.72;5076793;28;45450;-82
2022/02/02 03:54:03;;;;;;;;;9.75;9.00;;;;;11.93;100.00;102052.00;5076234;28;45824;-83
2022/02/02 03:56:34;;;;;;;;;8.50;7.50;;;;;11.96;100.00;102056.47;5076527;28;45439;-79
2022/02/02 04:06:43;;;;;;;;;12.00;12.00;;;;;11.97;100.00;102048.78;5077134;28;45462;-78
2022/02/02 04:09:09;;;;;;;;;10.25;9.00;;;;;12.00;100.00;102059.38;5076388;28;45296;-79
2022/02/02 04:11:44;;;;;;;;;7.00;7.00;;;;;12.01;100.00;102060.25;5076325;28;46153;-82
2022/02/02 04:15:08;;;;;;;;;9.25;8.00;;;;;11.99;100.00;102052.41;5076683;27;45372;-85
2022/02/02 05:03:23;;;;;;;;;10.00;8.50;;;;;11.95;100.00;102058.16;5064136;28;45403;-84
2022/02/02 05:19:08;;;;;;;;;10.00;9.75;;;;;12.01;100.00;102063.78;5079533;28;45506;-85
2022/02/02 05:25:09;;;;;;;;;10.75;9.75;;;;;12.03;100.00;102072.56;5084248;28;45366;-87
2022/02/02 05:51:31;;;;;;;;;14.25;10.50;;;;;12.12;100.00;102089.47;5083571;27;45435;-80
2022/02/02 05:53:57;;;;;;;;;15.00;11.00;;;;;12.14;100.00;102090.47;5060924;28;45525;-80
2022/02/02 05:56:23;;;;;;;;;10.00;10.00;;;;;12.17;100.00;102090.63;5079240;28;45489;-85
2022/02/02 05:58:49;;;;;;;;;13.00;10.75;;;;;12.17;100.00;102094.13;5078388;28;46202;-81
2022/02/02 06:01:15;;;;;;;;;11.00;9.25;;;;;12.20;100.00;102093.41;5060206;28;45841;-85
2022/02/02 06:03:53;;;;;;;;;13.75;11.00;;;;;12.18;100.00;102092.41;5042609;28;45280;-85
2022/02/02 06:06:23;;;;;;;;;14.75;14.75;;;;;12.19;100.00;102100.31;5078842;28;45565;-85
2022/02/02 06:08:50;;;;;;;;;17.75;13.75;;;;;12.18;100.00;102090.72;5078890;28;45291;-85
2022/02/02 06:11:18;;;;;;;;;16.50;14.25;;;;;12.20;100.00;102090.81;5060621;28;45947;-85
2022/02/02 06:13:50;;;;;;;;;13.25;13.25;;;;;12.18;100.00;102101.13;5078727;28;45311;-86
2022/02/02 06:16:17;;;;;;;;;16.00;12.25;;;;;12.19;100.00;102102.91;5064402;28;45499;-86
2022/02/02 06:18:45;;;;;;;;;13.25;10.75;;;;;12.20;100.00;102104.66;5085601;27;46175;-86
2022/02/02 06:21:12;;;;;;;;;14.50;11.25;;;;;12.20;100.00;102106.38;5085739;28;45315;-86
2022/02/02 06:23:47;;;;;;;;;14.25;14.00;;;;;12.19;100.00;102109.78;5081206;28;45308;-85
2022/02/02 06:26:15;;;;;;;;;10.50;9.75;;;;;12.18;100.00;102108.00;5081801;28;45267;-86
2022/02/02 06:28:45;;;;;;;;;16.25;11.75;;;;;12.18;100.00;102115.78;5078888;28;45953;-83
2022/02/02 06:31:14;;;;;;;;;16.00;14.50;;;;;12.17;100.00;102114.91;5079907;27;45232;-85
2022/02/02 06:33:41;;;;;;;;;9.75;9.75;;;;;12.19;100.00;102120.16;5078846;28;45419;-84
2022/02/02 06:36:11;;;;;;;;;13.50;12.00;;;;;12.17;100.00;102113.97;5064978;28;45562;-80
2022/02/02 06:38:39;;;;;;;;;11.75;10.00;;;;;12.17;100.00;102121.78;5077642;28;45735;-81
2022/02/02 06:41:06;;;;;;;;;11.50;9.50;;;;;12.19;100.00;102114.97;5077162;28;45917;-81
2022/02/02 06:43:32;;;;;;;;;11.00;10.50;;;;;12.17;100.00;102122.69;5078221;27;45767;-78
2022/02/02 06:46:00;;;;;;;;;10.00;10.00;;;;;12.17;100.00;102117.50;5082965;27;45554;-79
2022/02/02 06:48:30;;;;;;;;;6.25;6.25;;;;;12.18;100.00;102110.59;5082060;28;45279;-85
2022/02/02 06:51:10;;;;;;;;;10.00;9.00;;;;;12.16;100.00;102127.75;5079045;28;45924;-84
2022/02/02 06:54:01;;;;;;;;;7.50;7.50;;;;;12.16;100.00;102128.69;5088204;28;45289;-84
2022/02/02 06:56:48;;;;;;;;;6.50;6.50;;;;;12.17;100.00;102121.78;5051591;28;45432;-85
2022/02/02 07:01:56;;;;;;;;;13.00;7.25;;;;;12.20;100.00;102132.34;5082676;27;45272;-85
2022/02/02 07:04:47;;;;;;;;;10.00;9.00;;;;;12.17;100.00;102140.84;5076285;27;45462;-85
2022/02/02 07:07:46;;;;;;;;;10.75;8.00;;;;;12.17;100.00;102147.72;5074654;27;45619;-85
2022/02/02 07:15:49;;;;;;;;;7.00;5.75;;;;;12.08;100.00;102148.97;5072991;27;45381;-85
2022/02/02 07:18:41;;;;;;;;;6.00;5.00;;;;;12.08;100.00;102155.88;5077859;27;45469;-85
2022/02/02 07:21:26;;;;;;;;;7.00;5.75;;;;;12.07;100.00;102152.38;5069052;27;45473;-80
2022/02/02 07:24:16;;;;;;;;;7.75;6.50;;;;;12.08;100.00;102155.88;5057896;28;45881;-81
2022/02/02 07:29:33;;;;;;;;;6.50;6.00;;;;;12.05;100.00;102158.28;5072035;28;45313;-88
2022/02/02 07:34:56;;;;;;;;;5.50;4.00;;;;;12.08;100.00;102161.09;5086445;28;45334;-88
2022/02/02 07:37:35;;;;;;;;;5.00;4.00;;;;;12.10;100.00;102158.56;5086680;28;45245;-88
2022/02/02 07:40:07;;;;;;;;;6.25;4.00;;;;;12.14;100.00;102161.44;5083907;28;45516;-85
2022/02/02 07:42:33;;;;;;;;;4.00;4.00;;;;;12.13;100.00;102158.75;5081006;28;45313;-86
2022/02/02 07:45:11;;;;;;;;;4.25;3.25;;;;;12.13;100.00;102156.16;5057159;28;45401;-80
2022/02/02 07:47:45;;;;;;;;;5.25;5.00;;;;;12.12;100.00;102176.03;5081568;28;45420;-84
2022/02/02 07:50:12;;;;;;;;;4.00;4.00;;;;;12.13;100.00;102176.94;5054751;28;45522;-77
2022/02/02 07:52:41;;;;;;;;;4.00;3.75;;;;;12.12;100.00;102180.34;5076342;27;46296;-81
2022/02/02 07:55:10;;;;;;;;;5.00;5.00;;;;;12.14;100.00;102183.94;5077816;28;45947;-79
2022/02/02 07:57:36;;;;;;;;;7.50;4.50;;;;;12.10;100.00;102181.94;5078261;28;45686;-82
2022/02/02 08:00:08;;;;;;;;;5.50;4.00;;;;;12.07;100.00;102186.13;5078376;28;45617;-80
2022/02/02 08:02:52;;;;;;;;;4.25;4.00;;;;;12.06;100.00;102186.94;5083305;27;45359;-79
2022/02/02 08:05:19;;;;;;;;;4.00;3.75;;;;;12.05;100.00;102190.31;5041529;28;46019;-80
2022/02/02 08:07:59;;;;;;;;;4.75;4.00;;;;;12.08;100.00;102194.84;5051507;27;45638;-80
2022/02/02 08:10:26;;;;;;;;;4.50;4.50;;;;;12.08;100.00;102187.03;5081073;28;45707;-79
2022/02/02 08:13:09;;;;;;;;;3.75;3.75;;;;;12.07;100.00;102195.63;5079610;28;45943;-77
2022/02/02 08:15:35;;;;;;;;;5.00;5.00;;;;;12.07;100.00;102190.44;5061680;28;45857;-78
2022/02/02 08:18:01;;;;;;;;;5.50;3.50;;;;;12.07;100.00;102187.84;5080037;27;45316;-78
2022/02/02 08:20:27;;;;;;;;;5.25;4.50;;;;;12.06;100.00;102196.44;5079764;27;45816;-79
2022/02/02 08:22:53;;;;;;;;;10.75;8.00;;;;;12.06;100.00;102197.31;5060550;28;47937;-81
2022/02/02 08:25:30;;;;;;;;;4.75;4.75;;;;;12.06;100.00;102196.44;5060576;28;45400;-82
2022/02/02 08:28:01;;;;;;;;;5.25;3.00;;;;;12.05;100.00;102210.22;5078840;27;45488;-82
2022/02/02 08:30:29;;;;;;;;;5.50;4.00;;;;;12.08;100.00;102197.44;5061323;28;45862;-82
2022/02/02 08:33:00;;;;;;;;;6.00;6.00;;;;;12.11;100.00;102207.09;5081288;27;45390;-83
2022/02/02 08:35:33;;;;;;;;;5.00;5.00;;;;;12.15;100.00;102206.50;5085949;28;45752;-81
2022/02/02 08:38:13;;;;;;;;;5.00;4.00;;;;;12.17;100.00;102204.84;5085019;27;45466;-85
2022/02/02 08:40:50;;;;;;;;;5.25;3.75;;;;;12.18;100.00;102204.06;5080539;28;45458;-83
2022/02/02 08:43:23;;;;;;;;;3.50;3.50;;;;;12.15;100.00;102201.28;5078534;27;45263;-81
2022/02/02 08:45:50;;;;;;;;;5.00;4.75;;;;;12.14;100.00;102212.47;5059608;28;46036;-79
2022/02/02 08:48:24;;;;;;;;;7.00;6.00;;;;;12.12;100.00;102207.19;5077844;27;45238;-79
2022/02/02 08:51:02;;;;;;;;;3.00;3.00;;;;;12.14;100.00;102213.38;5078859;28;45236;-78
2022/02/02 08:53:34;;;;;;;;;6.00;4.50;;;;;12.15;100.00;102212.56;5078894;27;45626;-79
2022/02/02 09:00:55;;;;;;;;;4.50;3.25;;;;;12.16;100.00;102206.56;5081559;27;45335;-80
2022/02/02 09:06:06;;;;;;;;;4.00;4.00;;;;;12.18;100.00;102201.47;5078923;27;45410;-79
2022/02/02 09:08:33;;;;;;;;;2.00;2.00;;;;;12.21;100.00;102199.94;5078576;28;45377;-79
2022/02/02 09:24:26;;;;;;;;;2.25;2.00;;;;;12.17;100.00;102208.38;5078002;28;45453;-80
2022/02/02 09:35:06;;;;;;;;;3.00;3.00;;;;;12.16;100.00;102200.47;5078759;28;45265;-80
2022/02/02 09:37:32;;;;;;;;;3.00;3.00;;;;;12.12;100.00;102208.88;5078560;27;45680;-81
2022/02/02 09:40:11;;;;;;;;;3.75;3.75;;;;;12.10;100.00;102203.59;5077951;27;45284;-80
2022/02/02 09:42:36;;;;;;;;;4.00;3.00;;;;;12.12;100.00;102209.78;5078583;28;45793;-79
2022/02/02 09:45:09;;;;;;;;;5.75;5.75;;;;;12.12;100.00;102199.38;5078183;27;45893;-80
2022/02/02 09:47:47;;;;;;;;;5.50;4.25;;;;;12.11;100.00;102200.19;5059664;28;45872;-79
2022/02/02 09:50:21;;;;;;;;;4.00;4.00;;;;;12.16;100.00;102211.75;5078190;27;45336;-80
2022/02/02 09:52:54;;;;;;;;;5.00;4.50;;;;;12.19;100.00;102214.56;5078324;27;45501;-78
2022/02/02 09:55:47;;;;;;;;;5.00;5.00;;;;;12.15;100.00;102211.69;5081952;28;45360;-79
2022/02/02 10:03:35;;;;;;;;;6.25;5.00;;;;;12.08;100.00;102208.69;5077984;27;45418;-79
2022/02/02 10:06:13;;;;;;;;;5.00;5.00;;;;;12.08;100.00;102211.28;5077018;27;46253;-78
2022/02/02 10:14:31;;;;;;;;;7.25;5.00;;;;;12.15;100.00;102227.25;5077986;27;45468;-80
2022/02/02 10:16:57;;;;;;;;;3.75;3.75;;;;;12.14;100.00;102215.97;5076558;27;45271;-79
2022/02/02 10:19:25;;;;;;;;;4.25;4.25;;;;;12.15;100.00;102224.66;5075881;27;45271;-78
2022/02/02 10:21:55;;;;;;;;;6.50;5.00;;;;;12.16;100.00;102221.22;5078817;27;45471;-79
2022/02/02 10:24:47;;;;;;;;;6.00;5.00;;;;;12.20;100.00;102215.44;5079885;27;45224;-78
2022/02/02 10:27:34;;;;;;;;;5.00;4.00;;;;;12.22;100.00;102225.09;5077906;27;45398;-79
2022/02/02 10:30:09;;;;;;;;;10.75;6.25;;;;;12.23;100.00;102226.03;5059053;28;45302;-79
2022/02/02 10:32:49;;;;;;;;;5.00;4.75;;;;;12.30;100.00;102238.56;5077690;28;45391;-80
2022/02/02 10:35:38;;;;;;;;;4.50;4.00;;;;;12.30;100.00;102243.75;5058835;28;45469;-79
2022/02/02 10:38:14;;;;;;;;;5.50;4.75;;;;;12.29;100.00;102233.28;5077600;28;45346;-79
2022/02/02 10:40:56;;;;;;;;;6.25;5.50;;;;;12.27;100.00;102238.38;5075477;28;45365;-78
2022/02/02 10:43:52;;;;;;;;;4.50;3.00;;;;;12.26;100.00;102241.75;5077639;27;45495;-80
2022/02/02 10:46:53;;;;;;;;;5.75;2.75;;;;;12.22;100.00;102248.47;5077070;28;45809;-79
2022/02/02 10:49:28;;;;;;;;;5.00;5.00;;;;;12.28;100.00;102244.47;5082439;28;45586;-77
2022/02/02 10:52:09;;;;;;;;;4.00;3.75;;;;;12.32;100.00;102239.56;5089570;27;45246;-78
2022/02/02 10:54:44;;;;;;;;;3.25;2.75;;;;;12.38;100.00;102236.44;5088233;28;45309;-78
2022/02/02 11:00:01;;;;;;;;;5.25;5.25;;;;;12.30;100.00;102230.78;5076209;27;45867;-79
2022/02/02 11:07:59;;;;;;;;;4.00;4.00;;;;;12.23;100.00;102231.22;5076945;27;45342;-79
2022/02/02 11:10:29;;;;;;;;;5.25;5.25;;;;;12.32;100.00;102230.84;5076321;27;46327;-80
2022/02/02 11:12:56;;;;;;;;;5.25;5.00;;;;;12.38;100.00;102234.72;5076156;28;45792;-79
2022/02/02 11:15:45;;;;;;;;;8.25;8.00;;;;;12.45;100.00;102238.59;5076613;28;45687;-79
2022/02/02 11:18:24;;;;;;;;;6.50;6.50;;;;;12.49;100.00;102230.19;5075040;28;45366;-78
2022/02/02 11:20:52;;;;;;;;;9.75;8.00;;;;;12.55;100.00;102227.06;5075986;28;46264;-79
2022/02/02 11:23:19;;;;;;;;;6.00;5.50;;;;;12.61;100.00;102230.00;5076020;28;45440;-79
2022/02/02 11:25:50;;;;;;;;;4.50;4.50;;;;;12.61;100.00;102227.41;5075968;28;45291;-79
2022/02/02 11:28:33;;;;;;;;;2.00;2.00;;;;;12.57;100.00;102229.72;5056997;28;45374;-79
2022/02/02 11:31:11;;;;;;;;;3.75;3.75;;;;;12.57;100.00;102232.34;5075621;28;45325;-78
2022/02/02 11:33:52;;;;;;;;;4.50;4.50;;;;;12.60;100.00;102227.34;5076115;27;45825;-79
2022/02/02 11:36:26;;;;;;;;;6.75;6.00;;;;;12.63;100.00;102222.31;5076021;27;45359;-78
2022/02/02 11:38:54;;;;;;;;;4.50;3.50;;;;;12.60;100.00;102236.00;5076039;28;45439;-79
2022/02/02 11:44:13;;;;;;;;;4.25;4.00;;;;;12.54;100.00;102227.84;5075828;28;45890;-80
2022/02/02 11:49:33;;;;;;;;;8.50;4.75;;;;;12.52;100.00;102234.66;5076103;28;45540;-79
2022/02/02 11:52:04;;;;;;;;;5.00;5.00;;;;;12.51;100.00;102238.97;5074266;28;46399;-79
2022/02/02 11:54:32;;;;;;;;;3.00;3.00;;;;;12.52;100.00;102226.88;5076198;27;45449;-83
2022/02/02 11:57:03;;;;;;;;;4.50;4.50;;;;;12.54;100.00;102222.66;5075207;27;45373;-80
2022/02/02 12:00:03;;;;;;;;;6.25;5.25;;;;;12.56;100.00;102234.06;5076227;28;45533;-79
2022/02/02 12:02:54;;;;;;;;;3.00;2.00;;;;;12.52;100.00;102243.38;5055120;28;45401;-84
2022/02/02 12:57:50;;;;;;;;;5.00;3.00;;;;;12.47;100.00;102210.13;5049888;27;45575;-82
2022/02/02 13:00:23;;;;;;;;;3.50;3.50;;;;;12.47;100.00;102211.00;5064589;28;45485;-84
2022/02/02 13:02:51;;;;;;;;;5.50;5.00;;;;;12.45;100.00;102199.63;5062646;28;45419;-81
2022/02/02 13:05:23;;;;;;;;;3.50;2.50;;;;;12.48;100.00;102196.31;5080169;27;45647;-82
2022/02/02 13:07:55;;;;;;;;;4.75;4.00;;;;;12.47;100.00;102202.34;5078104;28;46171;-79
2022/02/02 13:10:23;;;;;;;;;6.00;4.00;;;;;12.51;100.00;102209.47;5076853;28;45470;-77
2022/02/02 13:21:04;;;;;;;;;4.75;4.75;;;;;12.58;100.00;102219.41;5078495;28;45295;-78
2022/02/02 13:26:39;;;;;;;;;5.00;4.00;;;;;12.59;100.00;102209.94;5077444;27;45347;-77
2022/02/02 13:29:15;;;;;;;;;5.75;4.00;;;;;12.59;100.00;102210.81;5076502;28;45517;-78
2022/02/02 13:32:04;;;;;;;;;4.25;4.25;;;;;12.65;100.00;102213.81;5058442;28;45726;-78
2022/02/02 13:46:04;;;;;;;;;3.25;3.00;;;;;12.67;100.00;102219.06;5078300;27;45288;-79
2022/02/02 14:04:09;;;;;;;;;2.50;2.00;;;;;12.60;100.00;102225.63;5076456;27;45521;-78
2022/02/02 14:06:39;;;;;;;;;4.25;1.50;;;;;12.58;100.00;102208.16;5077937;28;45398;-78
2022/02/02 14:09:16;;;;;;;;;1.00;1.00;;;;;12.60;100.00;102219.53;5058614;28;45494;-78
2022/02/02 14:25:40;;;;;;;;;1.00;1.00;;;;;12.54;100.00;102204.47;5058454;28;47790;-78
2022/02/02 14:31:08;;;;;;;;;1.50;1.50;;;;;12.62;100.00;102190.22;5073077;28;45308;-77
2022/02/02 14:33:35;;;;;;;;;2.00;1.25;;;;;12.60;100.00;102190.97;5071269;28;45377;-76
2022/02/02 14:36:05;;;;;;;;;1.00;1.00;;;;;12.58;100.00;102197.75;5075996;28;45702;-78
2022/02/02 14:38:39;;;;;;;;;2.00;2.00;;;;;12.57;100.00;102202.06;5076832;27;45453;-78
2022/02/02 14:43:52;;;;;;;;;2.25;2.00;;;;;12.58;100.00;102211.63;5076286;28;45251;-77
2022/02/02 14:46:22;;;;;;;;;2.50;2.50;;;;;12.61;100.00;102208.34;5074623;28;45350;-77
2022/02/02 14:48:56;;;;;;;;;1.00;1.00;;;;;12.64;100.00;102217.22;5076600;27;45235;-77
2022/02/02 15:10:08;;;;;;;;;0.75;0.75;;;;;12.78;100.00;102198.94;5075637;28;45386;-78
2022/02/02 15:28:47;;;;;;;;;0.00;0.00;;;;;12.91;100.00;102205.72;5075616;28;45800;-77
2022/02/02 15:31:13;;;;;;;;;1.50;1.50;;;;;12.92;100.00;102225.72;5075981;27;45304;-77
2022/02/02 15:33:39;;;;;;;;;2.75;2.75;;;;;12.89;100.00;102230.72;5075975;28;45541;-77
2022/02/02 15:38:52;;;;;;;;;2.00;1.00;;;;;12.74;100.00;102225.53;5073901;28;45749;-76
2022/02/02 15:41:25;;;;;;;;;0.50;0.50;;;;;12.70;100.00;102219.28;5076199;28;45291;-76
2022/02/02 16:03:01;;;;;;;;;3.00;2.75;;;;;12.50;100.00;102186.91;5075785;28;45938;-77
2022/02/02 16:05:30;;;;;;;;;2.00;2.00;;;;;12.54;100.00;102189.78;5076132;27;45208;-77
2022/02/02 16:08:03;;;;;;;;;3.25;3.25;;;;;12.57;100.00;102199.47;5057293;28;45549;-76
2022/02/02 16:10:41;;;;;;;;;2.25;2.25;;;;;12.59;100.00;102196.94;5057275;28;45399;-79
2022/02/02 16:13:15;;;;;;;;;2.00;2.00;;;;;12.62;100.00;102191.94;5057733;28;45271;-76
2022/02/02 16:15:41;;;;;;;;;3.25;3.00;;;;;12.65;100.00;102195.63;5079443;28;45314;-76
2022/02/02 16:18:32;;;;;;;;;4.75;3.00;;;;;12.66;100.00;102197.41;5079055;27;45829;-76
2022/02/02 16:32:33;;;;;;;;;3.00;2.75;;;;;12.59;100.00;102183.97;5079008;27;45414;-77
2022/02/02 16:37:36;;;;;;;;;5.75;4.00;;;;;12.58;100.00;102172.66;5079577;27;45240;-77
2022/02/02 16:40:05;;;;;;;;;4.00;3.00;;;;;12.59;100.00;102173.56;5079207;27;45461;-77
2022/02/02 16:45:18;;;;;;;;;3.00;3.00;;;;;12.52;100.00;102174.91;5079154;27;45260;-77
2022/02/02 16:47:44;;;;;;;;;2.00;2.00;;;;;12.54;100.00;102181.97;5061005;27;45665;-76
2022/02/02 16:50:16;;;;;;;;;5.00;4.00;;;;;12.57;100.00;102181.28;5078880;27;45894;-77
2022/02/02 16:52:43;;;;;;;;;4.00;4.00;;;;;12.61;100.00;102175.44;5078702;27;45330;-79
2022/02/02 16:55:16;;;;;;;;;2.50;2.25;;;;;12.60;100.00;102181.44;5077475;27;45556;-77
2022/02/02 17:30:23;;;;;;;;;4.75;3.00;;;;;12.36;100.00;102166.19;5076825;28;45493;-79
2022/02/02 17:35:31;;;;;;;;;4.25;4.00;;;;;12.36;100.00;102173.09;5090319;27;45300;-78
2022/02/02 17:38:11;;;;;;;;;6.25;5.00;;;;;12.33;100.00;102184.22;5092314;27;45238;-81
2022/02/02 17:56:03;;;;;;;;;3.00;3.00;;;;;12.32;100.00;102182.44;5088182;27;45470;-76
2022/02/02 18:18:56;;;;;;;;;3.00;2.75;;;;;12.31;100.00;102179.75;5077575;27;45149;-80
2022/02/02 18:21:24;;;;;;;;;5.25;4.75;;;;;12.32;100.00;102184.09;5071146;27;45976;-80
2022/02/02 18:23:58;;;;;;;;;4.50;3.50;;;;;12.35;100.00;102189.50;5076803;27;45501;-80
2022/02/02 18:26:31;;;;;;;;;2.75;2.75;;;;;12.38;100.00;102180.19;5077046;27;46344;-84
2022/02/02 18:29:09;;;;;;;;;3.00;3.00;;;;;12.44;100.00;102173.56;5076504;28;45382;-79
2022/02/02 18:44:51;;;;;;;;;4.25;4.25;;;;;12.57;100.00;102170.91;5077237;28;45354;-78
2022/02/02 18:50:26;;;;;;;;;4.00;4.00;;;;;12.57;100.00;102164.78;5082972;28;45464;-80
2022/02/02 18:58:45;;;;;;;;;6.25;6.00;;;;;12.58;100.00;102180.44;5045265;27;45388;-75
2022/02/02 19:03:57;;;;;;;;;6.00;6.00;;;;;12.58;100.00;102170.06;5077932;27;45305;-81
2022/02/02 19:06:45;;;;;;;;;8.25;7.75;;;;;12.58;100.00;102170.06;5077133;27;45394;-77
2022/02/02 19:53:44;;;;;;;;;9.25;7.25;;;;;12.41;100.00;102170.78;5073238;28;45430;-81
2022/02/02 20:11:36;;;;;;;;;6.25;6.25;;;;;12.15;100.00;102159.75;5076466;27;45360;-83
2022/02/02 20:14:02;;;;;;;;;6.50;5.50;;;;;12.17;100.00;102173.69;5056806;28;46875;-80
2022/02/02 20:16:27;;;;;;;;;4.25;4.25;;;;;12.15;100.00;102173.63;5075802;27;45754;-81
2022/02/02 20:18:56;;;;;;;;;7.75;7.25;;;;;12.10;100.00;102176.75;5076036;28;45382;-82
2022/02/02 20:21:25;;;;;;;;;7.00;6.00;;;;;12.07;100.00;102188.72;5075975;28;45565;-83
2022/02/02 20:23:52;;;;;;;;;10.00;8.00;;;;;12.03;100.00;102183.25;5058135;28;46845;-88
2022/02/02 20:26:22;;;;;;;;;9.00;8.00;;;;;12.03;100.00;102191.97;5075844;28;46062;-84
2022/02/02 20:28:48;;;;;;;;;7.25;7.25;;;;;12.04;100.00;102185.94;5078564;28;45370;-86
2022/02/02 20:31:14;;;;;;;;;11.75;8.50;;;;;12.05;100.00;102195.50;5078638;28;45559;-83
2022/02/02 20:33:40;;;;;;;;;8.75;7.75;;;;;12.04;100.00;102187.66;5057878;28;46355;-83
2022/02/02 20:36:07;;;;;;;;;8.00;5.75;;;;;12.02;100.00;102191.84;5076255;27;45295;-84
2022/02/02 20:38:33;;;;;;;;;9.00;8.75;;;;;12.04;100.00;102187.66;5076350;28;45541;-84
2022/02/02 20:41:00;;;;;;;;;6.50;6.25;;;;;12.02;100.00;102181.47;5077909;28;45477;-85
2022/02/02 20:43:33;;;;;;;;;7.50;7.25;;;;;12.01;100.00;102187.44;5056440;28;46997;-76
2022/02/02 21:04:58;;;;;;;;;6.25;6.25;;;;;11.98;100.00;102182.09;5078057;28;45702;-75
2022/02/02 21:10:13;;;;;;;;;8.00;8.00;;;;;11.96;100.00;102181.06;5078316;28;45530;-76
2022/02/02 21:15:25;;;;;;;;;6.50;5.50;;;;;11.97;100.00;102170.75;5077578;28;45746;-80
2022/02/02 21:17:54;;;;;;;;;9.00;8.50;;;;;11.97;100.00;102170.75;5078594;28;45781;-80
2022/02/02 21:20:46;;;;;;;;;7.25;6.50;;;;;11.99;100.00;102171.78;5078845;28;45320;-79
2022/02/02 21:26:00;;;;;;;;;5.00;4.00;;;;;11.92;100.00;102178.28;5077914;27;46284;-80
2022/02/02 21:28:26;;;;;;;;;7.50;7.00;;;;;11.95;100.00;102172.38;5060123;28;45860;-80
2022/02/02 21:30:52;;;;;;;;;7.00;5.25;;;;;11.93;100.00;102164.50;5060028;28;45851;-80
2022/02/02 21:33:18;;;;;;;;;5.00;5.00;;;;;11.96;100.00;102173.28;5060345;28;45406;-80
2022/02/02 21:35:46;;;;;;;;;8.75;6.50;;;;;11.96;100.00;102171.56;5077873;28;46204;-80
2022/02/02 21:38:35;;;;;;;;;8.50;5.75;;;;;11.93;100.00;102174.88;5059857;28;45746;-80
2022/02/02 21:41:00;;;;;;;;;5.75;5.25;;;;;11.88;100.00;102165.03;5078422;28;45304;-80
2022/02/02 21:43:30;;;;;;;;;4.00;3.25;;;;;11.87;100.00;102168.41;5078351;27;45516;-80
2022/02/02 21:45:56;;;;;;;;;5.75;3.00;;;;;11.87;100.00;102164.13;5077809;28;46159;-80
2022/02/02 21:48:27;;;;;;;;;6.25;4.00;;;;;11.88;100.00;102162.41;5077707;28;45735;-81
2022/02/02 21:50:57;;;;;;;;;3.00;3.00;;;;;11.86;100.00;102164.03;5077586;27;45413;-81
2022/02/02 21:53:22;;;;;;;;;2.25;2.00;;;;;11.88;100.00;102172.81;5078591;28;45487;-79
2022/02/02 21:55:48;;;;;;;;;5.00;5.00;;;;;11.89;100.00;102167.69;5077852;28;45747;-79
2022/02/02 21:58:14;;;;;;;;;4.00;3.25;;;;;11.89;100.00;102162.50;5078554;28;45281;-81
2022/02/02 22:00:41;;;;;;;;;4.00;2.00;;;;;11.87;100.00;102165.81;5078115;27;45252;-80